createdAt,value
2017-12-27T00:01:34.001Z,0.90
2017-12-27T00:04:08.002Z,0.90
2017-12-27T00:06:41.818Z,0.90
2017-12-27T00:09:15.782Z,0.90
2017-12-27T00:11:48.800Z,0.80
2017-12-27T00:14:22.766Z,0.90
2017-12-27T00:16:55.924Z,0.80
2017-12-27T00:19:29.108Z,0.80
2017-12-27T00:22:02.312Z,0.70
2017-12-27T00:24:35.429Z,0.50
2017-12-27T00:27:08.698Z,0.50
2017-12-27T00:29:41.941Z,0.50
2017-12-27T00:32:15.045Z,0.60
2017-12-27T00:34:43.294Z,0.70
2017-12-27T00:37:10.782Z,0.60
2017-12-27T00:39:38.256Z,0.70
2017-12-27T00:42:05.778Z,0.70
2017-12-27T00:44:34.025Z,0.80
2017-12-27T00:47:01.497Z,0.70
2017-12-27T00:49:28.978Z,0.70
2017-12-27T00:51:57.200Z,0.80
2017-12-27T00:54:24.673Z,0.70
2017-12-27T00:56:52.136Z,0.90
2017-12-27T00:59:19.618Z,0.90
2017-12-27T01:01:47.848Z,0.60
2017-12-27T01:04:15.312Z,0.50
2017-12-27T01:06:42.888Z,0.50
2017-12-27T01:09:10.458Z,0.60
2017-12-27T01:11:38.700Z,0.60
2017-12-27T01:14:06.164Z,0.50
2017-12-27T01:16:33.744Z,0.50
2017-12-27T01:19:01.966Z,0.80
2017-12-27T01:21:29.466Z,0.70
2017-12-27T01:23:56.926Z,0.80
2017-12-27T01:26:25.192Z,0.90
2017-12-27T01:28:52.648Z,0.80
2017-12-27T01:31:20.136Z,1.00
2017-12-27T01:33:47.586Z,0.90
2017-12-27T01:36:15.048Z,0.90
2017-12-27T01:38:42.558Z,0.90
2017-12-27T01:41:10.017Z,0.60
2017-12-27T01:43:37.500Z,0.60
2017-12-27T01:46:05.758Z,0.50
2017-12-27T01:48:33.312Z,0.40
2017-12-27T01:51:00.772Z,0.40
2017-12-27T01:53:28.242Z,0.40
2017-12-27T01:55:56.500Z,0.50
2017-12-27T01:58:24.047Z,0.50
2017-12-27T02:00:51.869Z,0.50
2017-12-27T02:03:20.130Z,0.60
2017-12-27T02:05:47.599Z,0.60
2017-12-27T02:08:15.068Z,0.60
2017-12-27T02:10:42.542Z,0.70
2017-12-27T02:13:10.018Z,0.70
2017-12-27T02:15:37.484Z,0.60
2017-12-27T02:18:05.712Z,0.50
2017-12-27T02:20:33.201Z,0.50
2017-12-27T02:23:00.673Z,0.50
2017-12-27T02:25:28.911Z,0.50
2017-12-27T02:27:56.483Z,0.40
2017-12-27T02:30:24.066Z,0.40
2017-12-27T02:32:52.323Z,0.10
2017-12-27T02:35:19.807Z,0.10
2017-12-27T02:37:47.269Z,0.00
2017-12-27T02:40:25.470Z,-0.20
2017-12-27T02:42:52.948Z,-0.10
2017-12-27T02:45:20.456Z,0.10
2017-12-27T02:47:48.018Z,0.20
2017-12-27T02:50:15.481Z,0.10
2017-12-27T02:52:43.709Z,0.30
2017-12-27T02:55:11.159Z,0.20
2017-12-27T02:57:38.652Z,0.30
2017-12-27T03:00:06.215Z,0.20
2017-12-27T03:02:34.491Z,0.20
2017-12-27T03:05:01.975Z,0.20
2017-12-27T03:07:29.422Z,0.10
2017-12-27T03:09:57.677Z,0.10
2017-12-27T03:12:25.169Z,0.10
2017-12-27T03:14:52.696Z,0.20
2017-12-27T03:17:20.927Z,0.20
2017-12-27T03:19:48.378Z,0.10
2017-12-27T03:22:15.860Z,0.20
2017-12-27T03:24:43.313Z,0.20
2017-12-27T03:27:10.810Z,0.10
2017-12-27T03:29:39.036Z,0.10
2017-12-27T03:32:06.526Z,0.10
2017-12-27T03:34:34.776Z,0.20
2017-12-27T03:37:02.244Z,0.20
2017-12-27T03:39:29.720Z,0.20
2017-12-27T03:41:57.944Z,0.20
2017-12-27T03:44:25.427Z,0.20
2017-12-27T03:46:52.988Z,0.20
2017-12-27T03:49:20.458Z,0.20
2017-12-27T03:51:48.687Z,0.20
2017-12-27T03:54:16.152Z,0.10
2017-12-27T03:56:43.630Z,0.10
2017-12-27T03:59:11.126Z,0.10
2017-12-27T04:01:38.592Z,0.10
2017-12-27T04:04:06.051Z,0.00
2017-12-27T04:06:33.664Z,0.00
2017-12-27T04:09:01.918Z,0.00
2017-12-27T04:11:29.383Z,-0.10
2017-12-27T04:13:56.847Z,0.10
2017-12-27T04:16:25.096Z,-0.20
2017-12-27T04:18:52.681Z,-0.30
2017-12-27T04:21:20.994Z,0.00
2017-12-27T04:23:48.462Z,0.00
2017-12-27T04:26:15.906Z,0.00
2017-12-27T04:28:43.391Z,0.10
2017-12-27T04:31:10.867Z,0.00
2017-12-27T04:33:38.427Z,-0.10
2017-12-27T04:36:05.925Z,-0.20
2017-12-27T04:38:33.394Z,-0.20
2017-12-27T04:41:00.851Z,-0.20
2017-12-27T04:43:28.334Z,0.00
2017-12-27T04:45:55.810Z,0.10
2017-12-27T04:48:23.372Z,0.10
2017-12-27T04:50:50.830Z,0.10
2017-12-27T04:53:19.087Z,0.10
2017-12-27T04:55:46.582Z,0.00
2017-12-27T04:58:14.050Z,0.10
2017-12-27T05:00:41.576Z,0.10
2017-12-27T05:03:09.900Z,-0.20
2017-12-27T05:05:37.381Z,-0.20
2017-12-27T05:08:04.858Z,-0.10
2017-12-27T05:10:33.084Z,0.10
2017-12-27T05:13:00.572Z,0.00
2017-12-27T05:15:28.036Z,0.10
2017-12-27T05:17:55.507Z,0.20
2017-12-27T05:20:23.738Z,0.10
2017-12-27T05:22:51.200Z,0.00
2017-12-27T05:25:18.762Z,-0.10
2017-12-27T05:27:46.242Z,-0.20
2017-12-27T05:30:14.458Z,0.00
2017-12-27T05:32:41.924Z,-0.10
2017-12-27T05:35:09.400Z,0.00
2017-12-27T05:37:36.882Z,0.20
2017-12-27T05:40:04.446Z,-0.10
2017-12-27T05:42:32.690Z,0.30
2017-12-27T05:45:00.164Z,0.30
2017-12-27T05:47:27.628Z,0.10
2017-12-27T05:49:55.880Z,0.00
2017-12-27T05:52:23.460Z,-0.10
2017-12-27T05:54:51.703Z,0.20
2017-12-27T05:57:19.218Z,0.10
2017-12-27T05:59:46.693Z,0.10
2017-12-27T06:02:14.407Z,0.20
2017-12-27T06:04:41.905Z,0.20
2017-12-27T06:07:09.360Z,0.20
2017-12-27T06:09:36.881Z,0.00
2017-12-27T06:12:05.104Z,0.20
2017-12-27T06:14:32.588Z,0.10
2017-12-27T06:17:00.056Z,0.10
2017-12-27T06:19:27.528Z,0.10
2017-12-27T06:21:55.778Z,0.30
2017-12-27T06:24:23.248Z,0.20
2017-12-27T06:26:51.492Z,0.40
2017-12-27T06:29:18.954Z,0.40
2017-12-27T06:31:46.398Z,0.30
2017-12-27T06:34:13.988Z,0.40
2017-12-27T06:36:42.216Z,0.50
2017-12-27T06:39:09.687Z,0.50
2017-12-27T06:41:37.166Z,0.50
2017-12-27T06:44:04.637Z,0.60
2017-12-27T06:46:32.863Z,0.60
2017-12-27T06:49:00.324Z,0.50
2017-12-27T06:51:27.862Z,0.60
2017-12-27T06:53:55.349Z,0.60
2017-12-27T06:56:22.822Z,0.70
2017-12-27T06:58:50.266Z,0.70
2017-12-27T07:01:18.525Z,0.60
2017-12-27T07:03:45.991Z,0.50
2017-12-27T07:06:13.568Z,0.60
2017-12-27T07:08:41.127Z,0.50
2017-12-27T07:11:08.588Z,0.60
2017-12-27T07:13:36.824Z,0.80
2017-12-27T07:16:04.314Z,0.70
2017-12-27T07:18:31.768Z,0.80
2017-12-27T07:20:59.258Z,0.80
2017-12-27T07:23:26.730Z,0.80
2017-12-27T07:25:54.182Z,0.60
2017-12-27T07:28:21.680Z,0.60
2017-12-27T07:30:49.154Z,0.70
2017-12-27T07:33:17.424Z,0.90
2017-12-27T07:35:44.980Z,0.80
2017-12-27T07:38:12.458Z,0.80
2017-12-27T07:40:40.681Z,0.70
2017-12-27T07:43:08.270Z,0.60
2017-12-27T07:45:35.727Z,0.80
2017-12-27T07:48:03.972Z,0.80
2017-12-27T07:50:31.414Z,0.70
2017-12-27T07:52:58.911Z,0.90
2017-12-27T07:55:26.380Z,0.70
2017-12-27T07:57:54.627Z,0.70
2017-12-27T08:00:22.109Z,0.60
2017-12-27T08:02:50.348Z,1.00
2017-12-27T08:05:17.823Z,0.90
2017-12-27T08:07:45.306Z,1.20
2017-12-27T08:10:12.812Z,1.30
2017-12-27T08:12:40.293Z,1.40
2017-12-27T08:15:07.745Z,1.40
2017-12-27T08:17:35.206Z,1.50
2017-12-27T08:20:03.438Z,1.40
2017-12-27T08:22:30.909Z,1.40
2017-12-27T08:24:58.509Z,1.50
2017-12-27T08:27:26.750Z,1.40
2017-12-27T08:29:54.244Z,1.40
2017-12-27T08:32:21.699Z,1.40
2017-12-27T08:34:49.942Z,1.50
2017-12-27T08:37:17.529Z,1.40
2017-12-27T08:39:45.769Z,1.50
2017-12-27T08:42:13.239Z,1.50
2017-12-27T08:44:40.800Z,1.70
2017-12-27T08:47:08.361Z,1.60
2017-12-27T08:49:35.902Z,1.40
2017-12-27T08:52:03.372Z,1.30
2017-12-27T08:54:30.845Z,1.40
2017-12-27T08:56:59.064Z,1.70
2017-12-27T08:59:26.542Z,1.60
2017-12-27T09:01:54.016Z,1.80
2017-12-27T09:04:21.505Z,2.00
2017-12-27T09:06:48.962Z,2.00
2017-12-27T09:09:16.410Z,2.30
2017-12-27T09:11:43.906Z,2.50
2017-12-27T09:14:11.379Z,2.60
2017-12-27T09:16:38.835Z,2.70
2017-12-27T09:19:06.314Z,2.70
2017-12-27T09:21:34.530Z,2.70
2017-12-27T09:24:02.030Z,2.60
2017-12-27T09:26:29.511Z,2.60
2017-12-27T09:28:57.735Z,2.70
2017-12-27T09:31:25.237Z,2.70
2017-12-27T09:33:53.450Z,2.80
2017-12-27T09:36:20.918Z,2.80
2017-12-27T09:38:48.402Z,2.80
2017-12-27T09:41:15.956Z,2.90
2017-12-27T09:43:43.438Z,3.00
2017-12-27T09:46:11.734Z,3.10
2017-12-27T09:48:39.244Z,3.00
2017-12-27T09:51:06.697Z,3.10
2017-12-27T09:53:34.169Z,3.10
2017-12-27T09:56:02.402Z,3.20
2017-12-27T09:58:31.516Z,3.10
2017-12-27T10:00:59.164Z,3.30
2017-12-27T10:03:26.646Z,3.40
2017-12-27T10:05:54.188Z,3.60
2017-12-27T10:08:21.738Z,3.80
2017-12-27T10:10:49.212Z,3.90
2017-12-27T10:13:16.656Z,4.10
2017-12-27T10:15:44.159Z,4.40
2017-12-27T10:18:11.625Z,5.30
2017-12-27T10:20:39.071Z,6.00
2017-12-27T10:23:06.548Z,6.00
2017-12-27T10:28:33.485Z,6.00
2017-12-27T10:31:00.970Z,5.80
2017-12-27T10:33:28.528Z,5.50
2017-12-27T10:35:56.014Z,5.40
2017-12-27T10:38:23.478Z,5.40
2017-12-27T10:40:50.955Z,5.50
2017-12-27T10:43:18.633Z,5.50
2017-12-27T10:45:46.081Z,5.60
2017-12-27T10:48:13.567Z,5.40
2017-12-27T10:50:41.020Z,5.30
2017-12-27T10:53:08.492Z,5.00
2017-12-27T10:55:36.797Z,4.70
2017-12-27T10:58:04.264Z,4.60
2017-12-27T11:00:31.734Z,4.60
2017-12-27T11:02:59.197Z,4.60
2017-12-27T11:05:26.656Z,4.50
2017-12-27T11:07:54.129Z,4.30
2017-12-27T11:10:21.733Z,4.30
2017-12-27T11:12:49.207Z,4.40
2017-12-27T11:15:16.668Z,4.50
2017-12-27T11:17:44.153Z,4.50
2017-12-27T11:20:12.410Z,4.10
2017-12-27T11:22:39.868Z,4.00
2017-12-27T11:25:07.362Z,4.20
2017-12-27T11:27:35.574Z,4.10
2017-12-27T11:30:03.038Z,4.10
2017-12-27T11:32:30.502Z,4.00
2017-12-27T11:34:57.965Z,4.00
2017-12-27T11:37:25.550Z,3.90
2017-12-27T11:39:53.762Z,3.80
2017-12-27T11:42:21.232Z,3.80
2017-12-27T11:44:48.716Z,3.80
2017-12-27T11:47:16.182Z,3.80
2017-12-27T11:49:43.658Z,3.90
2017-12-27T11:52:11.876Z,3.90
2017-12-27T11:54:39.343Z,3.80
2017-12-27T11:57:06.924Z,4.00
2017-12-27T11:59:34.398Z,4.00
2017-12-27T12:02:02.630Z,4.20
2017-12-27T12:04:30.110Z,4.20
2017-12-27T12:06:57.602Z,4.30
2017-12-27T12:09:25.043Z,4.40
2017-12-27T12:11:52.508Z,4.50
2017-12-27T12:14:19.992Z,4.80
2017-12-27T12:16:47.450Z,5.20
2017-12-27T12:19:15.030Z,5.10
2017-12-27T12:21:42.478Z,5.20
2017-12-27T12:24:09.940Z,5.20
2017-12-27T12:26:37.457Z,5.20
2017-12-27T12:29:04.926Z,5.10
2017-12-27T12:31:32.404Z,5.10
2017-12-27T12:33:59.874Z,5.20
2017-12-27T12:36:27.346Z,5.20
2017-12-27T12:38:55.605Z,5.20
2017-12-27T12:41:23.097Z,5.10
2017-12-27T12:43:50.674Z,5.20
2017-12-27T12:46:18.196Z,5.30
2017-12-27T12:48:46.437Z,5.20
2017-12-27T12:51:13.892Z,5.10
2017-12-27T12:53:41.356Z,5.20
2017-12-27T12:56:08.870Z,5.30
2017-12-27T12:58:37.084Z,5.40
2017-12-27T13:01:04.537Z,5.40
2017-12-27T13:03:32.012Z,5.30
2017-12-27T13:05:59.482Z,5.30
2017-12-27T13:08:27.720Z,5.20
2017-12-27T13:10:55.196Z,5.20
2017-12-27T13:13:23.430Z,5.20
2017-12-27T13:15:50.904Z,5.20
2017-12-27T13:18:18.346Z,5.20
2017-12-27T13:20:45.830Z,5.30
2017-12-27T13:23:13.316Z,5.20
2017-12-27T13:25:40.772Z,5.00
2017-12-27T13:28:08.228Z,5.00
2017-12-27T13:30:35.717Z,4.90
2017-12-27T13:33:03.168Z,4.90
2017-12-27T13:35:30.632Z,5.00
2017-12-27T13:37:58.106Z,4.90
2017-12-27T13:40:25.570Z,4.90
2017-12-27T13:42:53.054Z,4.90
2017-12-27T13:45:21.288Z,4.90
2017-12-27T13:47:48.754Z,4.80
2017-12-27T13:50:16.226Z,4.80
2017-12-27T13:52:43.736Z,4.70
2017-12-27T13:55:11.954Z,4.70
2017-12-27T13:57:39.501Z,4.70
2017-12-27T14:00:06.983Z,4.80
2017-12-27T14:02:35.240Z,4.70
2017-12-27T14:05:02.800Z,4.70
2017-12-27T14:07:30.260Z,4.60
2017-12-27T14:09:58.528Z,4.70
2017-12-27T14:12:25.988Z,4.60
2017-12-27T14:14:53.449Z,4.60
2017-12-27T14:17:21.678Z,4.60
2017-12-27T14:19:49.140Z,4.60
2017-12-27T14:22:16.603Z,4.60
2017-12-27T14:24:44.050Z,4.50
2017-12-27T14:27:11.517Z,4.40
2017-12-27T14:29:39.001Z,4.50
2017-12-27T14:32:07.263Z,4.40
2017-12-27T14:34:34.732Z,4.30
2017-12-27T14:37:02.974Z,4.40
2017-12-27T14:39:30.448Z,4.30
2017-12-27T14:41:58.170Z,4.40
2017-12-27T14:44:25.614Z,4.30
2017-12-27T14:46:53.094Z,4.20
2017-12-27T14:49:20.562Z,3.90
2017-12-27T14:51:48.034Z,4.00
2017-12-27T14:54:15.496Z,3.90
2017-12-27T14:56:43.745Z,4.00
2017-12-27T14:59:11.223Z,4.00
2017-12-27T15:01:38.671Z,4.00
2017-12-27T15:04:06.200Z,4.00
2017-12-27T15:06:33.723Z,3.90
2017-12-27T15:09:01.193Z,3.80
2017-12-27T15:11:28.647Z,3.80
2017-12-27T15:13:56.137Z,3.90
2017-12-27T15:16:23.620Z,3.90
2017-12-27T15:18:51.841Z,3.90
2017-12-27T15:21:19.346Z,3.80
2017-12-27T15:23:47.686Z,3.90
2017-12-27T15:26:15.145Z,3.90
2017-12-27T15:28:42.604Z,3.80
2017-12-27T15:31:10.073Z,3.80
2017-12-27T15:33:37.544Z,3.80
2017-12-27T15:36:05.758Z,3.70
2017-12-27T15:38:33.260Z,3.60
2017-12-27T15:41:00.732Z,3.70
2017-12-27T15:43:28.202Z,3.70
2017-12-27T15:45:56.465Z,3.60
2017-12-27T15:48:24.688Z,3.80
2017-12-27T15:50:52.145Z,3.80
2017-12-27T15:53:19.620Z,3.80
2017-12-27T15:55:47.083Z,3.60
2017-12-27T15:58:14.652Z,3.50
2017-12-27T16:00:42.106Z,3.60
2017-12-27T16:03:09.678Z,3.60
2017-12-27T16:05:37.918Z,3.70
2017-12-27T16:08:05.407Z,3.70
2017-12-27T16:10:32.874Z,3.80
2017-12-27T16:13:01.132Z,3.70
2017-12-27T16:15:28.600Z,3.60
2017-12-27T16:17:56.866Z,3.70
2017-12-27T16:20:25.101Z,3.70
2017-12-27T16:22:52.560Z,3.60
2017-12-27T16:25:20.053Z,3.60
2017-12-27T16:27:48.329Z,3.60
2017-12-27T16:30:16.573Z,3.70
2017-12-27T16:32:44.047Z,3.60
2017-12-27T16:35:11.652Z,3.60
2017-12-27T16:37:39.116Z,3.70
2017-12-27T16:40:06.610Z,3.70
2017-12-27T16:42:34.076Z,3.70
2017-12-27T16:45:01.645Z,3.70
2017-12-27T16:47:29.864Z,3.70
2017-12-27T16:49:57.477Z,3.60
2017-12-27T16:52:25.692Z,3.70
2017-12-27T16:54:53.192Z,3.60
2017-12-27T16:57:20.684Z,3.70
2017-12-27T16:59:48.165Z,3.70
2017-12-27T17:02:15.640Z,3.60
2017-12-27T17:04:43.091Z,3.30
2017-12-27T17:07:10.552Z,3.30
2017-12-27T17:09:38.026Z,3.40
2017-12-27T17:12:05.506Z,3.40
2017-12-27T17:14:32.963Z,3.50
2017-12-27T17:17:01.224Z,3.60
2017-12-27T17:19:29.442Z,3.50
2017-12-27T17:21:56.922Z,3.40
2017-12-27T17:24:24.395Z,3.50
2017-12-27T17:26:51.871Z,3.40
2017-12-27T17:29:20.100Z,3.50
2017-12-27T17:31:47.555Z,3.40
2017-12-27T17:34:15.146Z,3.50
2017-12-27T17:36:42.710Z,3.50
2017-12-27T17:39:10.933Z,3.50
2017-12-27T17:41:38.431Z,3.50
2017-12-27T17:44:06.732Z,3.60
2017-12-27T17:46:34.192Z,3.70
2017-12-27T17:49:01.642Z,3.80
2017-12-27T17:51:29.136Z,3.70
2017-12-27T17:53:56.599Z,3.80
2017-12-27T17:56:24.070Z,3.90
2017-12-27T17:58:51.664Z,3.90
2017-12-27T18:01:19.884Z,3.90
2017-12-27T18:03:47.374Z,3.80
2017-12-27T18:06:14.919Z,3.80
2017-12-27T18:08:42.384Z,3.80
2017-12-27T18:11:09.849Z,3.90
2017-12-27T18:13:38.164Z,4.00
2017-12-27T18:16:05.607Z,3.90
2017-12-27T18:18:33.068Z,4.00
2017-12-27T18:21:00.562Z,3.90
2017-12-27T18:23:28.024Z,3.90
2017-12-27T18:25:55.705Z,3.90
2017-12-27T18:28:23.174Z,3.80
2017-12-27T18:30:51.392Z,3.80
2017-12-27T18:33:18.881Z,3.70
2017-12-27T18:35:46.444Z,3.80
2017-12-27T18:38:13.924Z,3.90
2017-12-27T18:40:41.383Z,4.00
2017-12-27T18:43:08.908Z,4.10
2017-12-27T18:45:36.380Z,4.20
2017-12-27T18:48:04.628Z,4.40
2017-12-27T18:50:32.096Z,4.40
2017-12-27T18:52:59.552Z,4.40
2017-12-27T18:55:27.024Z,4.30
2017-12-27T18:57:55.251Z,4.20
2017-12-27T19:00:22.714Z,4.20
2017-12-27T19:02:50.181Z,4.20
2017-12-27T19:05:17.638Z,4.10
2017-12-27T19:07:45.894Z,4.00
2017-12-27T19:10:13.357Z,4.00
2017-12-27T19:12:40.804Z,3.90
2017-12-27T19:15:08.262Z,3.80
2017-12-27T19:17:35.731Z,3.80
2017-12-27T19:20:04.029Z,3.60
2017-12-27T19:22:31.589Z,3.50
2017-12-27T19:24:59.810Z,3.40
2017-12-27T19:27:27.280Z,3.40
2017-12-27T19:29:54.756Z,3.30
2017-12-27T19:32:22.306Z,3.30
2017-12-27T19:34:49.765Z,3.30
2017-12-27T19:37:17.260Z,3.20
2017-12-27T19:39:44.715Z,3.20
2017-12-27T19:42:12.243Z,3.10
2017-12-27T19:44:40.526Z,3.00
2017-12-27T19:47:08.076Z,3.00
2017-12-27T19:49:35.632Z,3.10
2017-12-27T19:52:03.137Z,2.90
2017-12-27T19:54:30.610Z,2.90
2017-12-27T19:56:58.061Z,2.80
2017-12-27T19:59:25.539Z,2.80
2017-12-27T20:01:53.112Z,2.70
2017-12-27T20:04:20.596Z,2.70
2017-12-27T20:06:48.836Z,2.60
2017-12-27T20:09:16.312Z,2.60
2017-12-27T20:11:44.546Z,2.60
2017-12-27T20:14:12.124Z,2.50
2017-12-27T20:16:39.616Z,2.60
2017-12-27T20:19:07.987Z,2.60
2017-12-27T20:21:36.208Z,2.60
2017-12-27T20:24:03.695Z,2.50
2017-12-27T20:26:31.175Z,2.60
2017-12-27T20:28:58.667Z,2.50
2017-12-27T20:31:26.696Z,2.60
2017-12-27T20:33:54.925Z,2.60
2017-12-27T20:36:22.430Z,2.50
2017-12-27T20:38:50.676Z,2.60
2017-12-27T20:41:18.158Z,2.50
2017-12-27T20:43:46.388Z,2.50
2017-12-27T20:46:13.866Z,2.50
2017-12-27T20:48:41.357Z,2.60
2017-12-27T20:51:08.827Z,2.60
2017-12-27T20:53:36.308Z,2.40
2017-12-27T20:56:03.792Z,2.40
2017-12-27T20:58:31.266Z,2.50
2017-12-27T21:00:59.502Z,2.30
2017-12-27T21:03:28.172Z,2.30
2017-12-27T21:05:55.627Z,2.40
2017-12-27T21:08:23.116Z,2.50
2017-12-27T21:10:50.595Z,2.50
2017-12-27T21:13:18.833Z,2.60
2017-12-27T21:15:46.304Z,2.50
2017-12-27T21:18:13.764Z,2.60
2017-12-27T21:20:42.008Z,2.60
2017-12-27T21:23:09.486Z,2.50
2017-12-27T21:25:37.066Z,2.60
2017-12-27T21:28:05.312Z,2.60
2017-12-27T21:30:32.776Z,2.50
2017-12-27T21:33:00.242Z,2.60
2017-12-27T21:35:28.514Z,2.70
2017-12-27T21:37:56.752Z,2.60
2017-12-27T21:40:24.221Z,2.60
2017-12-27T21:42:51.689Z,2.60
2017-12-27T21:45:19.164Z,2.50
2017-12-27T21:47:53.236Z,2.50
2017-12-27T21:50:20.826Z,2.40
2017-12-27T21:52:49.048Z,2.40
2017-12-27T21:55:16.526Z,2.30
2017-12-27T21:57:44.012Z,2.30
2017-12-27T22:00:17.887Z,2.50
2017-12-27T22:02:45.369Z,2.50
2017-12-27T22:05:13.607Z,2.50
2017-12-27T22:07:41.056Z,2.50
2017-12-27T22:10:08.554Z,2.50
2017-12-27T22:12:36.770Z,2.50
2017-12-27T22:15:04.238Z,2.40
2017-12-27T22:17:31.737Z,2.50
2017-12-27T22:19:59.192Z,2.50
2017-12-27T22:22:26.670Z,2.60
2017-12-27T22:24:54.888Z,2.60
2017-12-27T22:27:22.475Z,2.50
2017-12-27T22:29:50.746Z,2.80
2017-12-27T22:32:18.168Z,2.70
2017-12-27T22:34:45.656Z,2.80
2017-12-27T22:37:13.154Z,2.80
2017-12-27T22:39:40.608Z,2.70
2017-12-27T22:42:08.068Z,2.50
2017-12-27T22:44:35.539Z,2.50
2017-12-27T22:47:03.002Z,2.60
2017-12-27T22:49:30.473Z,2.60
2017-12-27T22:51:57.952Z,2.60
2017-12-27T22:54:25.406Z,2.60
2017-12-27T22:56:52.879Z,2.50
2017-12-27T22:59:21.106Z,2.50
2017-12-27T23:01:48.568Z,2.50
2017-12-27T23:04:16.166Z,2.50
2017-12-27T23:06:44.394Z,2.40
2017-12-27T23:09:11.930Z,2.40
2017-12-27T23:11:39.400Z,2.40
2017-12-27T23:14:07.000Z,2.40
2017-12-27T23:16:34.443Z,2.40
2017-12-27T23:19:01.930Z,2.40
2017-12-27T23:21:29.416Z,2.40
2017-12-27T23:23:56.879Z,2.40
2017-12-27T23:26:25.991Z,2.20
2017-12-27T23:28:53.586Z,2.20
2017-12-27T23:31:21.846Z,2.00
2017-12-27T23:33:49.312Z,2.00
2017-12-27T23:36:17.684Z,2.00
2017-12-27T23:38:45.922Z,2.00
2017-12-27T23:41:13.370Z,2.00
2017-12-27T23:43:40.867Z,2.00
2017-12-27T23:46:08.327Z,2.00
2017-12-27T23:48:36.587Z,1.90
2017-12-27T23:51:04.071Z,1.90
2017-12-27T23:53:32.321Z,2.00
2017-12-27T23:55:59.792Z,2.00
2017-12-27T23:58:28.033Z,2.10
